Time;durP1;ratioP1;P1;durP2;ratioP2;P2;SDS_P1;SDS_P2;PMS_P1;PMS_P2;Temp;Humidity;BMP_temperature;BMP_pressure;BME280_temperature;BME280_humidity;BME280_pressure;Samples;Min_cycle;Max_cycle;Signal;HPM_P1;HPM_P2
2022/05/08 00:01:55;;;;;;;29.35;16.95;;;;;;;;;;4372872;80;28572;-85
2022/05/08 00:07:56;;;;;;;25.92;16.30;;;;;;;;;;4354784;80;28515;-85
2022/05/08 00:13:57;;;;;;;23.70;15.10;;;;;;;;;;4360243;80;28528;-84
2022/05/08 00:19:58;;;;;;;24.35;15.30;;;;;;;;;;4339281;80;28579;-84
2022/05/08 00:25:59;;;;;;;27.82;16.40;;;;;;;;;;4364266;81;28531;-85
2022/05/08 00:31:59;;;;;;;26.42;17.20;;;;;;;;;;4360844;80;28514;-86
2022/05/08 00:38:00;;;;;;;29.95;18.57;;;;;;;;;;4383371;80;28541;-84
2022/05/08 00:44:02;;;;;;;27.48;18.25;;;;;;;;;;4387560;80;28521;-84
2022/05/08 00:50:03;;;;;;;27.37;17.45;;;;;;;;;;4366658;80;28502;-85
2022/05/08 00:56:06;;;;;;;29.77;18.85;;;;;;;;;;4387683;80;28528;-83
2022/05/08 01:02:07;;;;;;;31.97;18.50;;;;;;;;;;4378705;80;28487;-84
2022/05/08 01:08:09;;;;;;;28.92;18.67;;;;;;;;;;4364208;81;28557;-85
2022/05/08 01:14:11;;;;;;;27.65;17.98;;;;;;;;;;4357956;80;28453;-85
2022/05/08 01:20:12;;;;;;;28.35;16.95;;;;;;;;;;4322529;81;28547;-85
2022/05/08 01:26:15;;;;;;;26.33;16.67;;;;;;;;;;4310366;80;28537;-84
2022/05/08 01:32:19;;;;;;;26.20;17.42;;;;;;;;;;4358752;80;28535;-84
2022/05/08 01:38:21;;;;;;;29.57;19.17;;;;;;;;;;4345904;80;28608;-85
2022/05/08 01:44:24;;;;;;;29.12;19.20;;;;;;;;;;4334888;80;28487;-83
2022/05/08 01:50:25;;;;;;;24.47;16.55;;;;;;;;;;4332154;80;28515;-85
2022/05/08 01:56:25;;;;;;;25.62;16.48;;;;;;;;;;4299325;80;28510;-86
2022/05/08 02:02:26;;;;;;;31.75;17.35;;;;;;;;;;4356320;79;28537;-86
2022/05/08 02:08:27;;;;;;;30.27;17.70;;;;;;;;;;4311864;80;28500;-85
2022/05/08 02:14:28;;;;;;;28.00;18.35;;;;;;;;;;4271175;80;28508;-84
2022/05/08 02:20:29;;;;;;;26.75;17.95;;;;;;;;;;4279028;80;28580;-84
2022/05/08 02:26:31;;;;;;;28.02;17.10;;;;;;;;;;4392226;79;28511;-84
2022/05/08 02:32:31;;;;;;;27.45;16.97;;;;;;;;;;4381831;79;28614;-87
2022/05/08 02:38:33;;;;;;;28.95;18.42;;;;;;;;;;4404640;79;28486;-84
2022/05/08 02:44:36;;;;;;;33.75;18.42;;;;;;;;;;4400026;79;28462;-84
2022/05/08 02:50:37;;;;;;;29.48;18.50;;;;;;;;;;4391962;79;28518;-84
2022/05/08 03:02:57;;;;;;;25.82;16.32;;;;;;;;;;4391751;79;28459;-84
2022/05/08 03:08:58;;;;;;;26.82;17.42;;;;;;;;;;4394005;79;28540;-83
2022/05/08 03:14:59;;;;;;;27.15;17.10;;;;;;;;;;4383942;81;28474;-83
2022/05/08 03:20:59;;;;;;;26.62;17.40;;;;;;;;;;4389931;79;28568;-83
2022/05/08 03:27:00;;;;;;;27.10;16.15;;;;;;;;;;4347358;80;28533;-84
2022/05/08 03:33:01;;;;;;;25.43;15.10;;;;;;;;;;4332298;80;28524;-83
2022/05/08 03:39:02;;;;;;;24.45;16.65;;;;;;;;;;4321045;79;28563;-84
2022/05/08 03:45:04;;;;;;;22.82;15.45;;;;;;;;;;4341943;80;28520;-88
2022/05/08 03:51:05;;;;;;;24.70;16.82;;;;;;;;;;4340454;80;28521;-85
2022/05/08 03:57:06;;;;;;;25.12;15.75;;;;;;;;;;4339813;79;28578;-85
2022/05/08 04:03:08;;;;;;;23.27;14.90;;;;;;;;;;4340979;80;28553;-86
2022/05/08 04:09:09;;;;;;;25.37;16.42;;;;;;;;;;4324739;79;28488;-86
2022/05/08 04:21:30;;;;;;;25.43;17.02;;;;;;;;;;4339226;79;28522;-82
2022/05/08 04:27:30;;;;;;;25.85;15.95;;;;;;;;;;4348379;80;28577;-83
2022/05/08 04:33:31;;;;;;;22.55;14.98;;;;;;;;;;4334020;80;28525;-84
2022/05/08 04:39:33;;;;;;;25.48;16.02;;;;;;;;;;4337890;80;28545;-84
2022/05/08 04:45:34;;;;;;;22.90;15.93;;;;;;;;;;4326711;80;28552;-84
2022/05/08 04:51:35;;;;;;;23.42;16.35;;;;;;;;;;4310096;80;28528;-84
2022/05/08 04:57:36;;;;;;;30.35;18.23;;;;;;;;;;4321143;80;28478;-84
2022/05/08 05:03:37;;;;;;;24.82;15.90;;;;;;;;;;4320805;80;28465;-82
2022/05/08 05:09:38;;;;;;;24.30;15.85;;;;;;;;;;4291064;80;28513;-85
2022/05/08 05:15:39;;;;;;;27.52;17.80;;;;;;;;;;4330694;80;28521;-80
2022/05/08 05:21:40;;;;;;;27.27;17.82;;;;;;;;;;4345005;79;28533;-79
2022/05/08 05:27:40;;;;;;;28.17;17.75;;;;;;;;;;4352399;80;28469;-81
2022/05/08 05:33:42;;;;;;;27.55;18.37;;;;;;;;;;4367935;79;28492;-80
2022/05/08 05:39:43;;;;;;;23.02;15.43;;;;;;;;;;4329105;79;28626;-80
2022/05/08 05:45:45;;;;;;;23.65;14.95;;;;;;;;;;4345605;80;28564;-82
2022/05/08 05:58:46;;;;;;;20.37;13.72;;;;;;;;;;4329876;80;28577;-81
2022/05/08 06:04:46;;;;;;;21.25;14.23;;;;;;;;;;4344042;79;28478;-79
2022/05/08 06:10:47;;;;;;;21.12;14.65;;;;;;;;;;4340565;80;28518;-82
2022/05/08 06:16:49;;;;;;;21.60;15.55;;;;;;;;;;4345252;80;28492;-78
2022/05/08 06:22:50;;;;;;;19.52;13.90;;;;;;;;;;4348681;79;28498;-80
2022/05/08 06:28:50;;;;;;;19.10;14.00;;;;;;;;;;4396823;79;28558;-79
2022/05/08 06:34:53;;;;;;;20.50;14.45;;;;;;;;;;4402722;81;28501;-79
2022/05/08 06:40:54;;;;;;;19.70;14.05;;;;;;;;;;4391281;81;28968;-79
2022/05/08 06:46:54;;;;;;;19.07;13.65;;;;;;;;;;4382244;81;28458;-80
2022/05/08 06:52:55;;;;;;;19.35;13.65;;;;;;;;;;4400413;79;28509;-78
2022/05/08 07:05:17;;;;;;;18.92;12.37;;;;;;;;;;4362951;81;28520;-79
2022/05/08 07:11:17;;;;;;;18.37;13.28;;;;;;;;;;4371639;80;28546;-79
2022/05/08 07:17:19;;;;;;;21.87;13.70;;;;;;;;;;4352142;81;28528;-79
2022/05/08 07:23:20;;;;;;;21.30;12.58;;;;;;;;;;4426638;80;28478;-78
2022/05/08 07:29:21;;;;;;;16.73;12.43;;;;;;;;;;4388934;79;28556;-79
2022/05/08 07:41:41;;;;;;;18.65;12.53;;;;;;;;;;4397707;79;28560;-80
2022/05/08 07:47:43;;;;;;;18.25;12.28;;;;;;;;;;4416152;79;28476;-79
2022/05/08 07:53:43;;;;;;;19.17;11.70;;;;;;;;;;4428715;79;28552;-78
2022/05/08 07:59:45;;;;;;;14.47;11.45;;;;;;;;;;4410635;80;28430;-79
2022/05/08 08:05:46;;;;;;;17.62;12.47;;;;;;;;;;4371194;80;28516;-79
2022/05/08 08:11:47;;;;;;;14.43;10.48;;;;;;;;;;4427109;80;28494;-79
2022/05/08 08:17:48;;;;;;;13.45;9.55;;;;;;;;;;4402472;80;28474;-80
2022/05/08 08:23:49;;;;;;;15.38;10.78;;;;;;;;;;4418788;79;28509;-78
2022/05/08 08:29:50;;;;;;;11.50;8.78;;;;;;;;;;4293372;81;28540;-79
2022/05/08 08:35:51;;;;;;;14.85;8.98;;;;;;;;;;4300620;82;28524;-78
2022/05/08 08:41:54;;;;;;;12.60;9.40;;;;;;;;;;4326215;81;28551;-79
2022/05/08 08:47:56;;;;;;;11.20;7.90;;;;;;;;;;4350538;80;28480;-79
2022/05/08 08:54:02;;;;;;;11.40;9.08;;;;;;;;;;4304578;81;28505;-80
2022/05/08 09:00:05;;;;;;;13.20;8.93;;;;;;;;;;4282494;82;28500;-80
2022/05/08 09:06:08;;;;;;;11.70;8.53;;;;;;;;;;4346558;80;28506;-79
2022/05/08 09:12:11;;;;;;;12.35;9.00;;;;;;;;;;4303390;81;28497;-79
2022/05/08 09:18:14;;;;;;;11.73;8.70;;;;;;;;;;4310267;81;28539;-80
2022/05/08 09:24:19;;;;;;;13.32;9.18;;;;;;;;;;4338049;80;28593;-79
2022/05/08 09:30:20;;;;;;;11.40;9.03;;;;;;;;;;4367130;80;28542;-80
2022/05/08 09:36:24;;;;;;;10.38;8.55;;;;;;;;;;4317072;80;28498;-79
2022/05/08 09:42:36;;;;;;;10.43;8.23;;;;;;;;;;4333227;80;28526;-79
2022/05/08 09:48:39;;;;;;;11.45;7.25;;;;;;;;;;4301884;82;28471;-81
2022/05/08 09:54:44;;;;;;;13.03;7.50;;;;;;;;;;4321743;80;28499;-79
2022/05/08 10:00:46;;;;;;;10.58;8.48;;;;;;;;;;4295440;81;28491;-79
2022/05/08 10:06:48;;;;;;;11.95;7.78;;;;;;;;;;4325722;81;28478;-79
2022/05/08 10:19:22;;;;;;;10.08;7.08;;;;;;;;;;4325760;80;28642;-79
2022/05/08 10:25:23;;;;;;;9.65;7.00;;;;;;;;;;4341313;79;28491;-79
2022/05/08 10:31:42;;;;;;;9.55;7.62;;;;;;;;;;4386803;80;28521;-79
2022/05/08 10:37:46;;;;;;;8.78;7.30;;;;;;;;;;4343310;80;28555;-80
2022/05/08 10:43:47;;;;;;;8.13;6.67;;;;;;;;;;4376313;80;28516;-78
2022/05/08 10:49:47;;;;;;;9.65;6.87;;;;;;;;;;4359036;81;28441;-80
2022/05/08 10:55:49;;;;;;;8.43;6.10;;;;;;;;;;4361154;80;28521;-78
2022/05/08 11:01:50;;;;;;;8.33;6.10;;;;;;;;;;4364551;81;28564;-78
2022/05/08 11:07:59;;;;;;;9.10;6.60;;;;;;;;;;4344619;81;28508;-79
2022/05/08 11:14:00;;;;;;;8.75;5.70;;;;;;;;;;4361555;79;28573;-77
2022/05/08 11:20:02;;;;;;;7.15;5.65;;;;;;;;;;4339162;80;28558;-79
2022/05/08 11:26:12;;;;;;;7.35;5.40;;;;;;;;;;4321905;80;28604;-78
2022/05/08 11:38:48;;;;;;;6.58;5.85;;;;;;;;;;4329937;80;28545;-80
2022/05/08 11:44:48;;;;;;;;;;;;;;;;;;4357575;80;28631;-78
2022/05/08 11:50:54;;;;;;;7.53;5.22;;;;;;;;;;4349980;80;20191;-80
2022/05/08 11:57:16;;;;;;;7.03;5.40;;;;;;;;;;4337873;80;28524;-80
2022/05/08 12:03:28;;;;;;;5.40;4.37;;;;;;;;;;4352323;80;28517;-81
2022/05/08 12:09:47;;;;;;;4.87;4.03;;;;;;;;;;4348228;80;28545;-80
2022/05/08 12:15:49;;;;;;;5.25;4.25;;;;;;;;;;4339742;80;28622;-78
2022/05/08 12:21:50;;;;;;;11.28;5.20;;;;;;;;;;4341992;80;28963;-78
2022/05/08 12:27:53;;;;;;;7.15;5.85;;;;;;;;;;4348744;79;28516;-79
2022/05/08 12:33:57;;;;;;;8.55;6.70;;;;;;;;;;4391044;79;28533;-82
2022/05/08 12:40:00;;;;;;;9.78;6.95;;;;;;;;;;4373546;79;28468;-82
2022/05/08 12:46:02;;;;;;;10.50;7.65;;;;;;;;;;4351998;79;28496;-81
2022/05/08 12:52:06;;;;;;;7.80;6.30;;;;;;;;;;4376323;79;28484;-82
2022/05/08 13:04:31;;;;;;;5.72;4.92;;;;;;;;;;4342892;79;28537;-79
2022/05/08 13:10:34;;;;;;;7.83;5.75;;;;;;;;;;4337299;79;28766;-81
2022/05/08 13:16:35;;;;;;;7.15;5.28;;;;;;;;;;4372194;79;28501;-82
2022/05/08 13:22:40;;;;;;;6.37;5.25;;;;;;;;;;4377368;79;28494;-82
2022/05/08 13:28:39;;;;;;;5.47;4.40;;;;;;;;;;4318915;80;28551;-81
2022/05/08 13:34:42;;;;;;;5.58;4.55;;;;;;;;;;4329964;80;28546;-81
2022/05/08 13:40:43;;;;;;;6.90;4.08;;;;;;;;;;4332888;80;28553;-80
2022/05/08 13:46:46;;;;;;;7.80;4.47;;;;;;;;;;4306132;80;28530;-81
2022/05/08 13:52:47;;;;;;;5.58;4.25;;;;;;;;;;4334122;80;28476;-83
2022/05/08 13:58:48;;;;;;;5.22;3.95;;;;;;;;;;4319854;80;28592;-82
2022/05/08 14:04:49;;;;;;;4.58;3.77;;;;;;;;;;4330899;80;28521;-82
2022/05/08 14:10:50;;;;;;;6.72;4.00;;;;;;;;;;4335269;80;28537;-81
2022/05/08 14:16:51;;;;;;;4.03;3.60;;;;;;;;;;4328359;80;28539;-78
2022/05/08 14:22:53;;;;;;;5.03;3.67;;;;;;;;;;4327068;80;28552;-78
2022/05/08 14:28:54;;;;;;;5.35;3.70;;;;;;;;;;4336958;79;28547;-78
2022/05/08 14:41:17;;;;;;;4.35;3.75;;;;;;;;;;4339190;79;28550;-78
2022/05/08 14:47:19;;;;;;;4.80;4.20;;;;;;;;;;4325543;79;28446;-79
2022/05/08 14:53:20;;;;;;;5.15;4.15;;;;;;;;;;4338518;79;28575;-78
2022/05/08 14:59:20;;;;;;;7.37;5.12;;;;;;;;;;4353244;79;28553;-79
2022/05/08 15:05:21;;;;;;;8.53;6.05;;;;;;;;;;4315352;80;28569;-78
2022/05/08 15:11:24;;;;;;;8.40;6.05;;;;;;;;;;4346056;79;28520;-81
2022/05/08 15:17:25;;;;;;;7.50;5.12;;;;;;;;;;4367905;79;28459;-78
2022/05/08 15:23:26;;;;;;;7.65;5.30;;;;;;;;;;4408920;79;28466;-79
2022/05/08 15:29:26;;;;;;;7.70;5.05;;;;;;;;;;4333890;80;28471;-80
2022/05/08 15:35:27;;;;;;;6.90;5.28;;;;;;;;;;4363517;80;28555;-78
2022/05/08 15:41:30;;;;;;;5.62;4.97;;;;;;;;;;4372138;80;28554;-79
2022/05/08 15:47:31;;;;;;;6.50;4.95;;;;;;;;;;4367029;79;28574;-78
2022/05/08 15:53:32;;;;;;;6.42;5.22;;;;;;;;;;4379875;80;28469;-77
2022/05/08 15:59:35;;;;;;;5.97;4.75;;;;;;;;;;4425994;79;28502;-80
2022/05/08 16:05:36;;;;;;;7.00;5.33;;;;;;;;;;4385388;79;28477;-78
2022/05/08 16:11:37;;;;;;;5.72;4.97;;;;;;;;;;4332918;80;28495;-78
2022/05/08 16:23:59;;;;;;;6.72;5.20;;;;;;;;;;4368154;79;28510;-80
2022/05/08 16:30:00;;;;;;;8.25;5.37;;;;;;;;;;4336288;80;28560;-78
2022/05/08 16:36:01;;;;;;;6.08;5.42;;;;;;;;;;4286797;81;28525;-79
2022/05/08 16:42:05;;;;;;;6.72;4.87;;;;;;;;;;4373429;80;28550;-78
2022/05/08 16:48:06;;;;;;;6.30;4.87;;;;;;;;;;4313096;80;28514;-78
2022/05/08 16:54:07;;;;;;;5.42;4.85;;;;;;;;;;4333898;80;28508;-77
2022/05/08 17:00:08;;;;;;;6.10;4.75;;;;;;;;;;4333549;80;28521;-77
2022/05/08 17:06:09;;;;;;;7.67;5.50;;;;;;;;;;4320240;80;28494;-78
2022/05/08 17:12:10;;;;;;;6.47;4.72;;;;;;;;;;4305880;80;28496;-78
2022/05/08 17:18:11;;;;;;;5.62;4.87;;;;;;;;;;4289068;81;28599;-82
2022/05/08 17:24:13;;;;;;;5.75;5.00;;;;;;;;;;4270170;80;28546;-83
2022/05/08 17:30:14;;;;;;;7.33;4.92;;;;;;;;;;4364907;79;28478;-81
2022/05/08 17:36:16;;;;;;;7.03;4.75;;;;;;;;;;4376957;79;28595;-79
2022/05/08 17:42:19;;;;;;;6.15;5.10;;;;;;;;;;4381938;79;28534;-82
2022/05/08 17:48:19;;;;;;;6.17;5.40;;;;;;;;;;4375836;79;28556;-85
2022/05/08 17:54:21;;;;;;;7.72;6.03;;;;;;;;;;4398812;79;28488;-77
2022/05/08 18:00:23;;;;;;;9.23;6.90;;;;;;;;;;4364920;79;28533;-78
2022/05/08 18:06:24;;;;;;;8.38;6.58;;;;;;;;;;4380291;79;28513;-79
2022/05/08 18:12:26;;;;;;;7.75;5.90;;;;;;;;;;4324108;80;28524;-80
2022/05/08 18:18:28;;;;;;;8.08;5.25;;;;;;;;;;4323233;80;28514;-79
2022/05/08 18:24:32;;;;;;;5.40;4.25;;;;;;;;;;4356818;80;28587;-77
2022/05/08 18:30:36;;;;;;;5.87;3.87;;;;;;;;;;4336216;80;28558;-82
2022/05/08 18:36:37;;;;;;;5.90;3.72;;;;;;;;;;4418199;78;28547;-81
2022/05/08 18:42:38;;;;;;;5.08;3.37;;;;;;;;;;4391937;80;28475;-84
2022/05/08 18:48:39;;;;;;;4.20;3.37;;;;;;;;;;4332010;80;28544;-86
2022/05/08 18:54:42;;;;;;;5.28;3.35;;;;;;;;;;4363719;80;28537;-84
2022/05/08 19:00:50;;;;;;;3.52;3.10;;;;;;;;;;4429851;79;28512;-82
2022/05/08 19:06:47;;;;;;;3.52;2.80;;;;;;;;;;4432278;78;28530;-84
2022/05/08 19:12:48;;;;;;;2.47;2.10;;;;;;;;;;4436797;78;28474;-80
2022/05/08 19:18:51;;;;;;;2.92;2.17;;;;;;;;;;4324534;80;28489;-81
2022/05/08 19:24:53;;;;;;;3.65;2.50;;;;;;;;;;4329769;80;28525;-81
2022/05/08 19:43:33;;;;;;;5.25;3.00;;;;;;;;;;4384065;79;28547;-81
2022/05/08 19:49:36;;;;;;;3.77;3.10;;;;;;;;;;4393717;79;28544;-82
2022/05/08 19:55:39;;;;;;;3.55;2.70;;;;;;;;;;4388269;79;28529;-82
2022/05/08 20:01:42;;;;;;;3.30;3.00;;;;;;;;;;4390269;79;28470;-83
2022/05/08 20:07:46;;;;;;;3.70;2.70;;;;;;;;;;4394138;79;28548;-82
2022/05/08 20:13:46;;;;;;;5.58;3.30;;;;;;;;;;4393143;79;28450;-81
2022/05/08 20:19:47;;;;;;;4.65;2.87;;;;;;;;;;4392917;79;28591;-86
2022/05/08 20:25:48;;;;;;;4.22;3.10;;;;;;;;;;4390198;79;28493;-85
2022/05/08 20:31:49;;;;;;;5.78;3.33;;;;;;;;;;4363162;79;28524;-86
2022/05/08 20:37:50;;;;;;;4.03;3.10;;;;;;;;;;4367675;80;28540;-87
2022/05/08 20:43:53;;;;;;;4.95;3.62;;;;;;;;;;4353705;79;28535;-83
2022/05/08 20:49:54;;;;;;;5.17;3.95;;;;;;;;;;4362438;80;28532;-83
2022/05/08 20:55:55;;;;;;;5.53;4.05;;;;;;;;;;4374631;79;28501;-84
2022/05/08 21:01:57;;;;;;;3.90;3.47;;;;;;;;;;4369813;80;28444;-84
2022/05/08 21:08:01;;;;;;;4.72;3.27;;;;;;;;;;4367793;79;28587;-84
2022/05/08 21:14:04;;;;;;;5.85;3.15;;;;;;;;;;4387350;79;28570;-84
2022/05/08 21:20:05;;;;;;;5.22;3.30;;;;;;;;;;4352363;79;28561;-85
2022/05/08 21:26:06;;;;;;;4.20;3.33;;;;;;;;;;4370555;79;28561;-84
2022/05/08 21:32:07;;;;;;;4.28;3.70;;;;;;;;;;4340098;80;28474;-84
2022/05/08 21:38:08;;;;;;;5.22;3.70;;;;;;;;;;4334237;80;28483;-85
2022/05/08 21:44:13;;;;;;;5.28;3.47;;;;;;;;;;4339337;80;28720;-85
2022/05/08 21:50:12;;;;;;;6.37;4.05;;;;;;;;;;4321609;80;28546;-86
2022/05/08 21:56:13;;;;;;;4.87;3.72;;;;;;;;;;4338586;80;28510;-85
2022/05/08 22:02:15;;;;;;;5.08;3.15;;;;;;;;;;4326852;80;28434;-85
2022/05/08 22:08:18;;;;;;;5.33;3.50;;;;;;;;;;4336148;80;28528;-86
2022/05/08 22:14:19;;;;;;;5.08;3.85;;;;;;;;;;4349879;80;28482;-84
2022/05/08 22:20:20;;;;;;;6.05;4.10;;;;;;;;;;4338138;80;28502;-85
2022/05/08 22:26:21;;;;;;;5.00;4.10;;;;;;;;;;4325411;80;28540;-85
2022/05/08 22:32:22;;;;;;;5.28;3.95;;;;;;;;;;4393153;79;28567;-84
2022/05/08 22:38:23;;;;;;;6.20;3.77;;;;;;;;;;4400819;79;28450;-85
2022/05/08 22:44:24;;;;;;;6.03;3.37;;;;;;;;;;4378587;79;28497;-85
2022/05/08 22:50:25;;;;;;;6.00;3.75;;;;;;;;;;4389716;79;28500;-84
2022/05/08 22:56:27;;;;;;;6.78;4.30;;;;;;;;;;4384249;79;28512;-84
2022/05/08 23:02:27;;;;;;;4.65;3.77;;;;;;;;;;4388803;79;28557;-85
2022/05/08 23:08:28;;;;;;;6.22;3.72;;;;;;;;;;4381235;79;28537;-84
2022/05/08 23:21:02;;;;;;;6.00;3.60;;;;;;;;;;4424824;79;28496;-83
2022/05/08 23:27:03;;;;;;;4.95;3.75;;;;;;;;;;4428034;79;28881;-82
2022/05/08 23:33:04;;;;;;;7.20;4.05;;;;;;;;;;4416098;79;28470;-83
2022/05/08 23:39:05;;;;;;;4.83;4.00;;;;;;;;;;4418151;79;28470;-83
2022/05/08 23:45:07;;;;;;;7.10;4.53;;;;;;;;;;4386027;79;28501;-83
2022/05/08 23:51:23;;;;;;;6.33;3.85;;;;;;;;;;4352875;80;28486;-83
2022/05/08 23:57:26;;;;;;;6.22;3.27;;;;;;;;;;4396439;79;28575;-84
